NORTHEAST SUFFOLK  -  Freeze Watch Freeze Watch        NORTHWEST SUFFOLK  -  Freeze Watch Freeze Watch        SOUTHEAST SUFFOLK  -  Freeze Watch Freeze Watch        SOUTHWEST SUFFOLK  -  Freeze Watch Freeze Watch      

Active alerts

Northwest Suffolk
  Details for Northwest Suffolk Freeze Watch
Southwest Suffolk
  Details for Southwest Suffolk Freeze Watch
Northeast Suffolk
  Details for Northeast Suffolk Freeze Watch
Southeast Suffolk
  Details for Southeast Suffolk Freeze Watch


WXM80 ListenWXM80 Stop

You find our weather info also at:

UK Metoffice

WeatherCloud

Weather Underground

Northeastern Weather Network

AWEKAS

Citizen Weather Observer Program (CWOP)

HAMweather, WeatherForYou, PWS Weather


Weather Underground History page Text

Daily Summary for November 26, 2016 Units:  English    Metric   Both
« Previous Day
Next Day »
Daily Weekly Monthly Yearly Custom
  High: Low: Average:
Temperature: 52.8 °F 43.0 °F 47 °F
Dew Point: 45.4 °F 38.2 °F 41.9 °F
Humidity: 96 % 67 % 83 %
Wind Speed: 7.5 mph 0.0 mph 2.4 mph
Wind Gust: 11.5 mph - -
Wind:- - SW
Pressure: 30.10 in 30.00 in -
Precipitation: 0.00 in    
Historical Graphs
 
 
Tabular Data for November 26, 2016
Time Temperature Dew Point Pressure Wind Wind Speed Wind Gust Humidity Rainfall Rate (Hourly)
00:00 46.5 °F 44.6 °F 30.10 in Calm     93 % 0.00 in
00:05 46.4 °F 44.5 °F 30.09 in Calm     93 % 0.00 in
00:10 46.3 °F 44.4 °F 30.10 in Calm     93 % 0.00 in
00:15 46.1 °F 44.2 °F 30.10 in Calm     93 % 0.00 in
00:20 46.1 °F 44.2 °F 30.09 in Calm     93 % 0.00 in
00:25 45.9 °F 44.0 °F 30.09 in Calm     93 % 0.00 in
00:31 45.8 °F 43.9 °F 30.10 in North 1.0 mph 2.3 mph 93 % 0.00 in
00:36 45.7 °F 43.8 °F 30.09 in North 0.2 mph 1.2 mph 93 % 0.00 in
00:41 45.6 °F 43.7 °F 30.09 in Calm     93 % 0.00 in
00:46 45.6 °F 43.7 °F 30.09 in Calm     93 % 0.00 in
00:51 45.5 °F 43.6 °F 30.09 in Calm     93 % 0.00 in
00:56 45.4 °F 43.5 °F 30.09 in Calm     93 % 0.00 in
01:01 45.3 °F 43.4 °F 30.09 in Calm     93 % 0.00 in
01:06 45.2 °F 43.3 °F 30.09 in Calm     93 % 0.00 in
01:11 45.1 °F 43.2 °F 30.09 in Calm     93 % 0.00 in
01:16 45.1 °F 43.2 °F 30.09 in Calm     93 % 0.00 in
01:22 45.0 °F 43.1 °F 30.09 in Calm     93 % 0.00 in
01:27 44.9 °F 43.3 °F 30.10 in Calm   1.0 mph 94 % 0.00 in
01:32 44.9 °F 43.3 °F 30.09 in Calm     94 % 0.00 in
01:37 44.9 °F 43.3 °F 30.10 in Calm     94 % 0.00 in
01:42 44.9 °F 43.3 °F 30.10 in North 0.4 mph 1.2 mph 94 % 0.00 in
01:47 45.0 °F 43.4 °F 30.10 in Calm   1.2 mph 94 % 0.00 in
01:52 45.0 °F 43.4 °F 30.10 in Calm     94 % 0.00 in
01:57 45.2 °F 43.9 °F 30.10 in North 0.6 mph 1.2 mph 95 % 0.00 in
02:02 45.3 °F 44.0 °F 30.10 in North 0.2 mph 1.2 mph 95 % 0.00 in
02:07 45.4 °F 44.1 °F 30.10 in Calm   1.2 mph 95 % 0.00 in
02:13 45.6 °F 44.3 °F 30.10 in Calm     95 % 0.00 in
02:18 45.7 °F 44.6 °F 30.10 in Calm     96 % 0.00 in
02:23 45.9 °F 44.8 °F 30.10 in Calm     96 % 0.00 in
02:28 46.0 °F 44.9 °F 30.10 in Calm     96 % 0.00 in
02:33 46.1 °F 45.0 °F 30.10 in Calm   1.2 mph 96 % 0.00 in
02:38 46.1 °F 45.0 °F 30.09 in North 0.4 mph 1.2 mph 96 % 0.00 in
02:43 46.2 °F 45.1 °F 30.09 in North 0.7 mph 2.0 mph 96 % 0.00 in
02:48 46.3 °F 45.2 °F 30.09 in North 0.4 mph 2.3 mph 96 % 0.00 in
02:53 46.3 °F 45.2 °F 30.09 in Calm   1.2 mph 96 % 0.00 in
02:58 46.4 °F 45.3 °F 30.09 in NW 0.8 mph 3.5 mph 96 % 0.00 in
03:04 46.4 °F 45.3 °F 30.09 in Calm     96 % 0.00 in
03:09 46.5 °F 45.4 °F 30.09 in Calm     96 % 0.00 in
03:14 46.5 °F 45.4 °F 30.08 in Calm   1.2 mph 96 % 0.00 in
03:24 46.5 °F 45.4 °F 30.08 in NW 0.1 mph 1.2 mph 96 % 0.00 in
03:29 46.4 °F 45.3 °F 30.09 in Calm   1.2 mph 96 % 0.00 in
03:34 46.4 °F 45.3 °F 30.08 in NNW 0.9 mph 2.3 mph 96 % 0.00 in
03:39 46.4 °F 45.3 °F 30.09 in North 0.3 mph 1.2 mph 96 % 0.00 in
03:44 46.4 °F 45.3 °F 30.08 in NNW 2.0 mph 3.5 mph 96 % 0.00 in
03:50 46.4 °F 45.3 °F 30.09 in NNW 0.2 mph 1.2 mph 96 % 0.00 in
03:55 46.4 °F 45.3 °F 30.08 in North 1.4 mph 3.5 mph 96 % 0.00 in
04:00 46.4 °F 45.0 °F 30.08 in North 0.6 mph 2.0 mph 95 % 0.00 in
04:05 46.4 °F 45.0 °F 30.08 in NNE 3.3 mph 5.8 mph 95 % 0.00 in
04:10 46.3 °F 44.9 °F 30.08 in NNE 2.0 mph 5.0 mph 95 % 0.00 in
04:15 46.3 °F 44.9 °F 30.07 in Calm   5.0 mph 95 % 0.00 in
04:20 46.3 °F 44.9 °F 30.07 in NNE 1.0 mph 4.0 mph 95 % 0.00 in
04:25 46.3 °F 44.9 °F 30.07 in NNE 2.7 mph 3.5 mph 95 % 0.00 in
04:30 46.2 °F 44.9 °F 30.07 in NNE 1.0 mph 5.0 mph 95 % 0.00 in
04:35 46.3 °F 44.9 °F 30.07 in North 0.7 mph 3.5 mph 95 % 0.00 in
04:40 46.3 °F 44.9 °F 30.07 in North 3.0 mph 5.0 mph 95 % 0.00 in
04:45 46.3 °F 44.7 °F 30.07 in North 2.0 mph 4.0 mph 94 % 0.00 in
04:50 46.3 °F 44.7 °F 30.07 in North 2.3 mph 4.6 mph 94 % 0.00 in
04:55 46.3 °F 44.7 °F 30.07 in NNE 3.0 mph 5.0 mph 94 % 0.00 in
05:00 46.4 °F 44.8 °F 30.07 in NNE 1.6 mph 5.8 mph 94 % 0.00 in
05:05 46.4 °F 44.8 °F 30.07 in North 2.0 mph 3.5 mph 94 % 0.00 in
05:10 46.5 °F 44.9 °F 30.07 in NE 1.7 mph 3.5 mph 94 % 0.00 in
05:15 46.4 °F 44.8 °F 30.08 in North 3.2 mph 4.0 mph 94 % 0.00 in
05:20 46.5 °F 44.6 °F 30.07 in Calm   2.3 mph 93 % 0.00 in
05:25 46.5 °F 44.6 °F 30.07 in NNE 2.5 mph 3.5 mph 93 % 0.00 in
05:30 46.4 °F 44.5 °F 30.07 in NNE 3.0 mph 4.6 mph 93 % 0.00 in
05:35 46.4 °F 44.5 °F 30.07 in ENE 1.0 mph 3.0 mph 93 % 0.00 in
05:41 46.3 °F 44.4 °F 30.06 in ENE 0.5 mph 2.3 mph 93 % 0.00 in
05:46 46.4 °F 44.2 °F 30.07 in Calm     92 % 0.00 in
05:51 46.3 °F 44.1 °F 30.07 in ENE 0.4 mph 3.5 mph 92 % 0.00 in
05:56 46.3 °F 44.1 °F 30.06 in East 0.1 mph 3.5 mph 92 % 0.00 in
06:01 46.1 °F 43.9 °F 30.07 in ENE 2.3 mph 5.8 mph 92 % 0.00 in
06:06 46.1 °F 43.6 °F 30.06 in ENE 3.9 mph 4.0 mph 91 % 0.00 in
06:11 46.0 °F 43.5 °F 30.06 in ENE 2.5 mph 4.0 mph 91 % 0.00 in
06:16 46.0 °F 43.5 °F 30.06 in NE 1.3 mph 2.3 mph 91 % 0.00 in
06:21 46.0 °F 43.5 °F 30.06 in ENE 1.7 mph 5.0 mph 91 % 0.00 in
06:26 46.0 °F 43.5 °F 30.06 in East 3.2 mph 5.0 mph 91 % 0.00 in
06:31 46.1 °F 43.6 °F 30.06 in ENE 3.2 mph 5.0 mph 91 % 0.00 in
06:37 46.0 °F 43.2 °F 30.06 in ENE 0.6 mph 2.0 mph 90 % 0.00 in
06:42 46.0 °F 43.2 °F 30.06 in NE 2.8 mph 3.5 mph 90 % 0.00 in
06:47 46.1 °F 43.3 °F 30.06 in NNE 1.7 mph 5.0 mph 90 % 0.00 in
06:52 46.0 °F 43.2 °F 30.06 in NE 2.9 mph 4.0 mph 90 % 0.00 in
06:57 46.0 °F 43.5 °F 30.06 in NNE 1.4 mph 3.5 mph 91 % 0.00 in
07:02 46.0 °F 43.5 °F 30.06 in NNE 4.0 mph 6.9 mph 91 % 0.00 in
07:07 45.9 °F 43.4 °F 30.06 in North 3.9 mph 4.6 mph 91 % 0.00 in
07:12 45.9 °F 43.1 °F 30.06 in NNE 4.0 mph 5.0 mph 90 % 0.00 in
07:17 45.9 °F 43.1 °F 30.06 in NNE 2.4 mph 3.5 mph 90 % 0.00 in
07:23 45.9 °F 43.1 °F 30.06 in NNE 2.7 mph 5.8 mph 90 % 0.00 in
07:28 45.9 °F 43.1 °F 30.07 in North 7.5 mph 11.5 mph 90 % 0.00 in
07:33 46.0 °F 43.2 °F 30.07 in NNW 5.0 mph 8.0 mph 90 % 0.00 in
07:38 46.1 °F 43.3 °F 30.07 in NNE 4.0 mph 9.2 mph 90 % 0.00 in
07:43 46.2 °F 43.4 °F 30.07 in NNW 3.0 mph 7.0 mph 90 % 0.00 in
07:48 46.2 °F 43.4 °F 30.08 in NNE 4.1 mph 6.0 mph 90 % 0.00 in
07:53 46.2 °F 43.1 °F 30.08 in NNE 4.8 mph 6.0 mph 89 % 0.00 in
07:58 46.2 °F 43.1 °F 30.07 in NNW 4.9 mph 6.9 mph 89 % 0.00 in
08:03 46.1 °F 42.7 °F 30.07 in NNE 4.1 mph 6.9 mph 88 % 0.00 in
08:08 46.1 °F 42.7 °F 30.07 in NNE 3.4 mph 5.8 mph 88 % 0.00 in
08:14 46.1 °F 42.7 °F 30.07 in NNE 2.0 mph 4.0 mph 88 % 0.00 in
08:19 46.1 °F 42.7 °F 30.07 in NNW 4.0 mph 6.0 mph 88 % 0.00 in
08:24 46.1 °F 42.7 °F 30.07 in North 2.8 mph 6.9 mph 88 % 0.00 in
08:29 46.3 °F 42.9 °F 30.07 in NNE 4.8 mph 9.2 mph 88 % 0.00 in
08:39 46.4 °F 43.0 °F 30.08 in North 0.8 mph 3.5 mph 88 % 0.00 in
08:44 46.5 °F 43.1 °F 30.08 in North 4.9 mph 6.9 mph 88 % 0.00 in
08:49 46.7 °F 43.3 °F 30.08 in NNE 2.5 mph 4.6 mph 88 % 0.00 in
08:54 46.8 °F 42.8 °F 30.08 in NNW 4.3 mph 9.0 mph 86 % 0.00 in
08:59 46.8 °F 42.8 °F 30.08 in North 2.4 mph 3.5 mph 86 % 0.00 in
09:05 46.9 °F 42.9 °F 30.08 in NE 0.2 mph 3.5 mph 86 % 0.00 in
09:10 47.0 °F 43.0 °F 30.08 in NNE 2.2 mph 4.6 mph 86 % 0.00 in
09:15 47.2 °F 43.2 °F 30.08 in ENE 2.0 mph 3.5 mph 86 % 0.00 in
09:20 47.2 °F 42.9 °F 30.08 in ENE 1.9 mph 3.0 mph 85 % 0.00 in
09:25 47.3 °F 43.0 °F 30.08 in ENE 1.0 mph 2.0 mph 85 % 0.00 in
09:30 47.3 °F 43.0 °F 30.08 in Calm   1.0 mph 85 % 0.00 in
09:35 47.4 °F 43.1 °F 30.08 in NNE 2.0 mph 4.0 mph 85 % 0.00 in
09:40 47.5 °F 43.2 °F 30.08 in NNE 1.0 mph 3.0 mph 85 % 0.00 in
09:45 47.6 °F 43.3 °F 30.08 in North 1.0 mph 4.0 mph 85 % 0.00 in
09:50 47.8 °F 43.5 °F 30.08 in NNE 1.0 mph 3.0 mph 85 % 0.00 in
09:55 48.1 °F 43.5 °F 30.08 in NNE 1.0 mph 3.0 mph 84 % 0.00 in
10:00 48.4 °F 43.8 °F 30.08 in NNE 1.8 mph 4.0 mph 84 % 0.00 in
10:05 48.6 °F 43.4 °F 30.08 in NNW 2.9 mph 5.0 mph 82 % 0.00 in
10:10 48.8 °F 43.5 °F 30.07 in NW 0.1 mph 2.3 mph 82 % 0.00 in
10:15 49.0 °F 44.1 °F 30.07 in NNW 2.0 mph 2.3 mph 83 % 0.00 in
10:20 49.2 °F 43.9 °F 30.07 in NNW 1.9 mph 3.5 mph 82 % 0.00 in
10:25 49.4 °F 44.1 °F 30.07 in North 0.5 mph 3.0 mph 82 % 0.00 in
10:30 49.7 °F 44.4 °F 30.07 in East 1.6 mph 5.8 mph 82 % 0.00 in
10:35 50.3 °F 44.7 °F 30.06 in NNE 2.7 mph 3.5 mph 81 % 0.00 in
10:41 50.5 °F 44.6 °F 30.06 in NE 3.5 mph 4.0 mph 80 % 0.00 in
10:46 50.7 °F 43.4 °F 30.06 in NNW 4.6 mph 6.9 mph 76 % 0.00 in
10:51 50.8 °F 42.5 °F 30.06 in North 4.7 mph 10.4 mph 73 % 0.00 in
10:56 50.9 °F 42.6 °F 30.06 in NW 4.3 mph 5.8 mph 73 % 0.00 in
11:01 51.0 °F 42.3 °F 30.05 in NNE 2.3 mph 6.9 mph 72 % 0.00 in
11:06 51.0 °F 42.3 °F 30.05 in NNE 4.9 mph 9.2 mph 72 % 0.00 in
11:11 51.0 °F 41.6 °F 30.04 in North 4.7 mph 8.1 mph 70 % 0.00 in
11:16 51.0 °F 41.6 °F 30.04 in NNE 5.6 mph 9.2 mph 70 % 0.00 in
11:21 50.9 °F 41.5 °F 30.04 in NNW 3.4 mph 5.0 mph 70 % 0.00 in
11:26 51.0 °F 41.9 °F 30.04 in NNE 4.6 mph 8.0 mph 71 % 0.00 in
11:32 51.0 °F 41.9 °F 30.04 in NW 2.3 mph 6.9 mph 71 % 0.00 in
11:37 51.0 °F 41.9 °F 30.03 in North 6.9 mph 10.4 mph 71 % 0.00 in
11:42 51.1 °F 42.4 °F 30.03 in NW 4.0 mph 9.2 mph 72 % 0.00 in
11:47 51.0 °F 42.3 °F 30.03 in NW 4.8 mph 6.0 mph 72 % 0.00 in
11:52 51.0 °F 42.3 °F 30.03 in NNW 5.8 mph 11.5 mph 72 % 0.00 in
11:57 50.9 °F 42.2 °F 30.03 in NNE 2.6 mph 8.1 mph 72 % 0.00 in
12:02 50.9 °F 42.2 °F 30.02 in NNW 4.3 mph 8.1 mph 72 % 0.00 in
12:07 51.0 °F 41.9 °F 30.02 in North 5.8 mph 10.4 mph 71 % 0.00 in
12:12 51.0 °F 41.9 °F 30.02 in North 4.2 mph 10.4 mph 71 % 0.00 in
12:17 51.3 °F 42.2 °F 30.02 in NNE 4.8 mph 9.2 mph 71 % 0.00 in
12:22 51.5 °F 42.0 °F 30.02 in North 3.5 mph 4.6 mph 70 % 0.00 in
12:27 51.9 °F 42.4 °F 30.02 in NNE 2.5 mph 4.6 mph 70 % 0.00 in
12:33 52.1 °F 42.6 °F 30.02 in NNW 2.5 mph 6.9 mph 70 % 0.00 in
12:38 52.3 °F 42.8 °F 30.01 in NNW 5.6 mph 8.1 mph 70 % 0.00 in
12:43 52.3 °F 42.8 °F 30.01 in NNW 3.5 mph 4.6 mph 70 % 0.00 in
12:48 52.2 °F 42.7 °F 30.01 in WNW 6.2 mph 8.0 mph 70 % 0.00 in
12:53 52.1 °F 42.6 °F 30.01 in North 2.5 mph 5.8 mph 70 % 0.00 in
12:58 52.1 °F 42.6 °F 30.01 in NW 4.3 mph 6.9 mph 70 % 0.00 in
13:03 52.2 °F 43.1 °F 30.01 in NNW 5.2 mph 7.0 mph 71 % 0.00 in
13:08 52.2 °F 42.7 °F 30.01 in NNW 2.1 mph 3.5 mph 70 % 0.00 in
13:13 52.4 °F 42.9 °F 30.01 in NW 2.4 mph 3.5 mph 70 % 0.00 in
13:18 52.6 °F 43.1 °F 30.01 in NW 3.9 mph 6.0 mph 70 % 0.00 in
13:24 52.7 °F 42.4 °F 30.00 in WNW 3.0 mph 5.8 mph 68 % 0.00 in
13:29 52.8 °F 42.9 °F 30.01 in West 1.1 mph 4.0 mph 69 % 0.00 in
13:34 52.7 °F 42.0 °F 30.00 in WNW 4.8 mph 8.1 mph 67 % 0.00 in
13:39 52.5 °F 42.2 °F 30.00 in WNW 2.8 mph 6.9 mph 68 % 0.00 in
13:44 52.5 °F 41.9 °F 30.00 in NW 6.8 mph 11.5 mph 67 % 0.00 in
13:49 52.4 °F 42.1 °F 30.00 in North 2.5 mph 5.8 mph 68 % 0.00 in
13:54 52.2 °F 41.6 °F 30.00 in NNW 3.7 mph 6.9 mph 67 % 0.00 in
13:59 51.9 °F 41.3 °F 30.00 in NW 4.5 mph 8.1 mph 67 % 0.00 in
14:04 51.6 °F 41.0 °F 30.00 in NNW 4.6 mph 9.2 mph 67 % 0.00 in
14:09 51.4 °F 41.6 °F 30.00 in NW 3.7 mph 4.6 mph 69 % 0.00 in
14:14 51.2 °F 41.4 °F 30.00 in NW 3.7 mph 6.0 mph 69 % 0.00 in
14:20 50.9 °F 41.1 °F 30.00 in NNW 4.3 mph 8.1 mph 69 % 0.00 in
14:25 50.6 °F 41.2 °F 30.00 in NW 6.1 mph 8.1 mph 70 % 0.00 in
14:30 50.4 °F 41.0 °F 30.00 in NW 3.3 mph 6.9 mph 70 % 0.00 in
14:35 50.2 °F 41.2 °F 30.00 in NW 2.0 mph 10.0 mph 71 % 0.00 in
14:40 49.9 °F 40.9 °F 30.00 in NW 2.9 mph 11.5 mph 71 % 0.00 in
14:45 49.6 °F 40.6 °F 30.00 in NW 5.0 mph 9.0 mph 71 % 0.00 in
14:50 49.4 °F 40.4 °F 30.01 in NW 3.0 mph 7.0 mph 71 % 0.00 in
14:55 49.2 °F 40.6 °F 30.01 in WNW 6.0 mph 10.0 mph 72 % 0.00 in
15:00 49.0 °F 40.4 °F 30.01 in NNW 2.1 mph 6.9 mph 72 % 0.00 in
15:05 48.8 °F 40.2 °F 30.01 in NW 2.7 mph 8.1 mph 72 % 0.00 in
15:10 48.7 °F 40.4 °F 30.01 in NW 3.7 mph 8.0 mph 73 % 0.00 in
15:15 48.6 °F 39.6 °F 30.00 in NW 3.5 mph 8.1 mph 71 % 0.00 in
15:20 48.5 °F 39.9 °F 30.00 in NNW 4.6 mph 11.0 mph 72 % 0.00 in
15:26 48.4 °F 39.4 °F 30.01 in NNW 3.1 mph 8.1 mph 71 % 0.00 in
15:31 48.3 °F 39.7 °F 30.01 in North 3.2 mph 6.9 mph 72 % 0.00 in
15:36 48.2 °F 39.6 °F 30.01 in NW 2.8 mph 4.0 mph 72 % 0.00 in
15:41 48.1 °F 39.5 °F 30.01 in NNW 1.9 mph 4.6 mph 72 % 0.00 in
15:46 47.9 °F 39.7 °F 30.01 in NNW 3.6 mph 5.8 mph 73 % 0.00 in
15:51 47.9 °F 39.7 °F 30.01 in NW 1.0 mph 3.5 mph 73 % 0.00 in
15:56 47.8 °F 39.6 °F 30.01 in NW 4.5 mph 5.8 mph 73 % 0.00 in
16:01 47.8 °F 39.6 °F 30.00 in WNW 2.9 mph 8.1 mph 73 % 0.00 in
16:06 47.7 °F 39.5 °F 30.00 in North 1.9 mph 4.6 mph 73 % 0.00 in
16:11 47.6 °F 39.0 °F 30.00 in North 4.3 mph 8.1 mph 72 % 0.00 in
16:16 47.6 °F 39.4 °F 30.01 in NW 2.4 mph 7.0 mph 73 % 0.00 in
16:22 47.5 °F 39.6 °F 30.01 in NW 4.4 mph 6.9 mph 74 % 0.00 in
16:27 47.5 °F 39.6 °F 30.01 in NNW 2.9 mph 5.8 mph 74 % 0.00 in
16:32 47.4 °F 39.5 °F 30.01 in NW 3.5 mph 8.1 mph 74 % 0.00 in
16:37 47.3 °F 39.4 °F 30.01 in NNW 3.4 mph 5.8 mph 74 % 0.00 in
16:42 47.4 °F 39.9 °F 30.01 in NNW 2.6 mph 9.2 mph 75 % 0.00 in
16:47 47.4 °F 39.9 °F 30.02 in North 2.8 mph 8.1 mph 75 % 0.00 in
16:52 47.5 °F 40.0 °F 30.02 in NNW 5.2 mph 11.5 mph 75 % 0.00 in
16:57 47.6 °F 39.7 °F 30.02 in NW 2.5 mph 5.0 mph 74 % 0.00 in
17:02 47.7 °F 39.8 °F 30.02 in NW 2.2 mph 5.8 mph 74 % 0.00 in
17:07 47.7 °F 39.8 °F 30.02 in NNW 3.6 mph 5.8 mph 74 % 0.00 in
17:12 47.7 °F 39.8 °F 30.02 in NNW 2.3 mph 7.0 mph 74 % 0.00 in
17:17 47.8 °F 39.9 °F 30.02 in NNW 2.8 mph 4.6 mph 74 % 0.00 in
17:22 47.7 °F 39.8 °F 30.02 in WNW 3.7 mph 8.0 mph 74 % 0.00 in
17:28 47.6 °F 40.1 °F 30.02 in NNW 0.9 mph 4.6 mph 75 % 0.00 in
17:33 47.5 °F 39.6 °F 30.02 in NNW 3.5 mph 10.4 mph 74 % 0.00 in
17:38 47.3 °F 39.8 °F 30.02 in NW 2.5 mph 5.8 mph 75 % 0.00 in
17:43 47.2 °F 39.7 °F 30.02 in NNW 3.9 mph 5.8 mph 75 % 0.00 in
17:48 47.1 °F 39.6 °F 30.02 in NNW 2.3 mph 5.8 mph 75 % 0.00 in
17:53 47.0 °F 39.8 °F 30.02 in NW 3.1 mph 9.2 mph 76 % 0.00 in
17:58 46.9 °F 39.7 °F 30.02 in NNW 3.7 mph 8.1 mph 76 % 0.00 in
18:03 46.8 °F 40.0 °F 30.02 in North 3.7 mph 7.0 mph 77 % 0.00 in
18:08 46.8 °F 40.0 °F 30.02 in North 4.2 mph 8.1 mph 77 % 0.00 in
18:13 46.8 °F 40.0 °F 30.02 in NNW 3.9 mph 6.9 mph 77 % 0.00 in
18:18 46.9 °F 40.1 °F 30.02 in NNW 2.4 mph 5.8 mph 77 % 0.00 in
18:23 46.9 °F 40.1 °F 30.02 in NW 1.2 mph 4.6 mph 77 % 0.00 in
18:28 46.9 °F 40.1 °F 30.02 in North 2.8 mph 5.8 mph 77 % 0.00 in
18:39 46.7 °F 40.2 °F 30.03 in North 4.2 mph 9.2 mph 78 % 0.00 in
18:44 46.7 °F 40.2 °F 30.02 in NW 3.7 mph 4.6 mph 78 % 0.00 in
18:49 46.5 °F 40.0 °F 30.03 in NNW 1.3 mph 8.1 mph 78 % 0.00 in
18:54 46.4 °F 39.9 °F 30.02 in North 1.9 mph 3.5 mph 78 % 0.00 in
18:59 46.4 °F 40.2 °F 30.03 in WNW 1.3 mph 5.8 mph 79 % 0.00 in
19:04 46.3 °F 40.5 °F 30.03 in NW 3.4 mph 8.1 mph 80 % 0.00 in
19:09 46.2 °F 40.0 °F 30.03 in NW 3.9 mph 8.1 mph 79 % 0.00 in
19:14 46.1 °F 39.9 °F 30.03 in NNW 3.7 mph 6.9 mph 79 % 0.00 in
19:19 46.0 °F 39.9 °F 30.03 in NW 2.0 mph 4.6 mph 79 % 0.00 in
19:24 45.9 °F 39.8 °F 30.03 in NNW 3.3 mph 4.6 mph 79 % 0.00 in
19:29 45.7 °F 39.6 °F 30.03 in North 2.0 mph 4.6 mph 79 % 0.00 in
19:35 45.6 °F 39.5 °F 30.03 in North 2.4 mph 8.1 mph 79 % 0.00 in
19:40 45.5 °F 39.4 °F 30.03 in NW 1.7 mph 5.8 mph 79 % 0.00 in
19:45 45.4 °F 39.6 °F 30.03 in WNW 2.3 mph 4.6 mph 80 % 0.00 in
19:50 45.4 °F 39.6 °F 30.03 in North 3.0 mph 7.0 mph 80 % 0.00 in
19:55 45.3 °F 39.5 °F 30.03 in NNW 1.0 mph 7.0 mph 80 % 0.00 in
20:00 45.3 °F 39.8 °F 30.03 in NNW 0.7 mph 3.5 mph 81 % 0.00 in
20:05 45.3 °F 39.8 °F 30.03 in NW 1.0 mph 5.0 mph 81 % 0.00 in
20:10 45.2 °F 39.7 °F 30.03 in NW 1.0 mph 6.0 mph 81 % 0.00 in
20:15 45.2 °F 39.7 °F 30.03 in NW 0.9 mph 3.5 mph 81 % 0.00 in
20:20 45.2 °F 39.7 °F 30.03 in NW 3.0 mph 6.0 mph 81 % 0.00 in
20:25 45.1 °F 39.6 °F 30.03 in NW 1.0 mph 5.0 mph 81 % 0.00 in
20:30 45.1 °F 39.6 °F 30.03 in NNW 5.0 mph 8.0 mph 81 % 0.00 in
20:35 45.0 °F 39.5 °F 30.04 in NNW 2.0 mph 7.0 mph 81 % 0.00 in
20:40 45.0 °F 39.5 °F 30.04 in NNW 5.0 mph 8.0 mph 81 % 0.00 in
20:45 45.0 °F 39.5 °F 30.03 in North 2.0 mph 8.0 mph 81 % 0.00 in
20:50 44.9 °F 39.4 °F 30.03 in North 3.0 mph 8.0 mph 81 % 0.00 in
20:55 44.9 °F 39.4 °F 30.03 in North 2.0 mph 6.0 mph 81 % 0.00 in
21:00 44.9 °F 39.4 °F 30.04 in NNW 3.0 mph 3.5 mph 81 % 0.00 in
21:05 44.8 °F 39.3 °F 30.04 in NNW 2.0 mph 7.0 mph 81 % 0.00 in
21:10 44.7 °F 39.2 °F 30.04 in NNW 1.5 mph 3.5 mph 81 % 0.00 in
21:15 44.7 °F 39.2 °F 30.03 in NNW 1.4 mph 3.5 mph 81 % 0.00 in
21:20 44.6 °F 39.1 °F 30.03 in NNW 5.9 mph 9.2 mph 81 % 0.00 in
21:25 44.6 °F 39.1 °F 30.03 in NW 2.5 mph 6.9 mph 81 % 0.00 in
21:30 44.6 °F 39.1 °F 30.03 in North 0.8 mph 4.6 mph 81 % 0.00 in
21:35 44.6 °F 39.1 °F 30.03 in North 3.0 mph 5.8 mph 81 % 0.00 in
21:40 44.5 °F 39.0 °F 30.03 in North 2.3 mph 3.5 mph 81 % 0.00 in
21:46 44.4 °F 38.9 °F 30.02 in North 2.5 mph 3.5 mph 81 % 0.00 in
21:51 44.3 °F 38.8 °F 30.02 in North 3.8 mph 5.8 mph 81 % 0.00 in
21:56 44.2 °F 38.7 °F 30.02 in WNW 0.8 mph 3.5 mph 81 % 0.00 in
22:01 44.1 °F 38.6 °F 30.02 in North 0.3 mph 4.6 mph 81 % 0.00 in
22:06 44.0 °F 38.5 °F 30.02 in WNW 1.5 mph 3.5 mph 81 % 0.00 in
22:11 43.9 °F 38.4 °F 30.02 in NNW 0.8 mph 2.3 mph 81 % 0.00 in
22:16 43.8 °F 38.3 °F 30.02 in WNW 1.2 mph 3.5 mph 81 % 0.00 in
22:21 43.7 °F 38.6 °F 30.02 in NNW 1.1 mph 4.6 mph 82 % 0.00 in
22:26 43.5 °F 38.4 °F 30.03 in NW 2.0 mph 4.0 mph 82 % 0.00 in
22:31 43.4 °F 38.6 °F 30.03 in NW 3.9 mph 7.0 mph 83 % 0.00 in
22:37 43.3 °F 38.5 °F 30.03 in NW 3.0 mph 5.0 mph 83 % 0.00 in
22:42 43.3 °F 38.5 °F 30.03 in WNW 2.5 mph 4.6 mph 83 % 0.00 in
22:47 43.3 °F 38.5 °F 30.02 in NNW 2.8 mph 7.0 mph 83 % 0.00 in
22:52 43.3 °F 38.5 °F 30.02 in NNW 1.9 mph 4.6 mph 83 % 0.00 in
22:57 43.3 °F 38.5 °F 30.02 in NNW 2.3 mph 6.9 mph 83 % 0.00 in
23:02 43.2 °F 38.4 °F 30.02 in NW 3.1 mph 4.6 mph 83 % 0.00 in
23:07 43.2 °F 38.4 °F 30.02 in WNW 4.1 mph 6.9 mph 83 % 0.00 in
23:12 43.2 °F 38.4 °F 30.02 in NNW 3.5 mph 5.8 mph 83 % 0.00 in
23:17 43.1 °F 38.3 °F 30.02 in NNW 3.1 mph 6.9 mph 83 % 0.00 in
23:22 43.0 °F 38.2 °F 30.03 in WNW 3.6 mph 6.9 mph 83 % 0.00 in
23:27 43.0 °F 38.5 °F 30.03 in WNW 2.5 mph 4.0 mph 84 % 0.00 in
23:33 43.0 °F 38.5 °F 30.03 in NNW 2.0 mph 4.6 mph 84 % 0.00 in
23:38 43.0 °F 38.5 °F 30.03 in NNW 4.1 mph 6.9 mph 84 % 0.00 in
23:43 43.1 °F 38.6 °F 30.03 in North 3.5 mph 10.4 mph 84 % 0.00 in
23:48 43.1 °F 38.6 °F 30.03 in NW 3.3 mph 5.8 mph 84 % 0.00 in
23:53 43.1 °F 38.6 °F 30.03 in NW 4.3 mph 9.2 mph 84 % 0.00 in
23:58 43.1 °F 38.6 °F 30.03 in WNW 3.2 mph 5.8 mph 84 % 0.00 in
Crab Meadow Weather
Compliments of Weather Underground - 3 mb

Script developed by  Jim McMurry - jmcmurry@mwt.net Adapted for the template by  Wim van der Kuil - Leuven-Template.eu

Weather Terms: Downburst - A strong downdraft from a thunderstorm resulting in an outward burst of damaging winds on or near the ground. Downburst winds are often 50 to 100 mph and in a few cases, 100 to 150 mph. They can do as much damage as a small tornado.